createdAt,value
2023-03-22T00:01:15.180Z,7.80
2023-03-22T00:03:42.159Z,7.80
2023-03-22T00:06:09.009Z,7.80
2023-03-22T00:08:35.790Z,7.80
2023-03-22T00:11:02.679Z,7.80
2023-03-22T00:13:29.671Z,7.70
2023-03-22T00:15:57.702Z,7.70
2023-03-22T00:18:24.456Z,7.70
2023-03-22T00:20:54.136Z,7.70
2023-03-22T00:23:21.353Z,7.80
2023-03-22T00:25:48.169Z,7.80
2023-03-22T00:28:16.347Z,7.80
2023-03-22T00:30:50.613Z,7.80
2023-03-22T00:33:17.440Z,7.80
2023-03-22T00:35:52.243Z,7.80
2023-03-22T00:38:21.913Z,7.90
2023-03-22T00:40:50.374Z,7.90
2023-03-22T00:43:17.630Z,8.00
2023-03-22T00:45:44.356Z,8.00
2023-03-22T00:48:12.009Z,8.00
2023-03-22T00:50:40.194Z,8.10
2023-03-22T00:53:07.828Z,8.10
2023-03-22T00:55:34.782Z,8.00
2023-03-22T00:58:02.621Z,8.10
2023-03-22T01:00:31.379Z,8.10
2023-03-22T01:02:59.700Z,8.00
2023-03-22T01:05:28.222Z,8.00
2023-03-22T01:07:55.176Z,8.00
2023-03-22T01:10:21.949Z,8.00
2023-03-22T01:12:48.686Z,8.00
2023-03-22T01:15:15.764Z,8.00
2023-03-22T01:17:43.199Z,8.00
2023-03-22T01:20:11.045Z,8.00
2023-03-22T01:22:38.374Z,8.00
2023-03-22T01:25:05.634Z,8.10
2023-03-22T01:27:32.537Z,8.10
2023-03-22T01:29:59.282Z,8.10
2023-03-22T01:32:26.167Z,8.10
2023-03-22T01:34:53.260Z,8.10
2023-03-22T01:37:21.906Z,8.10
2023-03-22T01:39:49.416Z,8.10
2023-03-22T01:42:18.159Z,8.10
2023-03-22T01:45:13.919Z,8.10
2023-03-22T01:47:54.531Z,8.10
2023-03-22T01:50:23.004Z,8.10
2023-03-22T01:52:52.131Z,8.00
2023-03-22T01:55:27.520Z,8.10
2023-03-22T01:58:08.450Z,8.10
2023-03-22T02:00:51.416Z,8.10
2023-03-22T02:03:53.418Z,8.10
2023-03-22T02:06:21.614Z,8.20
2023-03-22T02:08:58.157Z,8.20
2023-03-22T02:11:33.680Z,8.20
2023-03-22T02:14:09.971Z,8.20
2023-03-22T02:17:19.444Z,8.20
2023-03-22T02:20:39.869Z,8.20
2023-03-22T02:23:25.842Z,8.10
2023-03-22T02:26:11.462Z,8.10
2023-03-22T02:28:40.943Z,8.10
2023-03-22T02:31:49.066Z,8.10
2023-03-22T02:34:53.861Z,8.10
2023-03-22T02:38:08.848Z,8.00
2023-03-22T02:40:43.296Z,8.00
2023-03-22T02:43:38.293Z,8.00
2023-03-22T02:46:08.822Z,7.90
2023-03-22T02:49:07.780Z,7.80
2023-03-22T02:51:42.367Z,7.70
2023-03-22T02:54:31.809Z,7.60
2023-03-22T02:57:11.322Z,7.60
2023-03-22T02:59:40.979Z,7.50
2023-03-22T03:02:11.558Z,7.50
2023-03-22T03:04:46.161Z,7.50
2023-03-22T03:07:16.617Z,7.50
2023-03-22T03:09:44.384Z,7.50
2023-03-22T03:12:21.144Z,7.50
2023-03-22T03:14:48.296Z,7.50
2023-03-22T03:17:33.825Z,7.50
2023-03-22T03:20:00.757Z,7.50
2023-03-22T03:22:36.481Z,7.50
2023-03-22T03:25:24.754Z,7.50
2023-03-22T03:27:58.188Z,7.40
2023-03-22T03:30:35.546Z,7.40
2023-03-22T03:33:09.599Z,7.40
2023-03-22T03:36:01.187Z,7.40
2023-03-22T03:38:31.492Z,7.40
2023-03-22T03:41:06.182Z,7.40
2023-03-22T03:43:34.521Z,7.40
2023-03-22T03:46:11.394Z,7.40
2023-03-22T03:48:41.333Z,7.40
2023-03-22T03:51:10.950Z,7.40
2023-03-22T03:53:38.042Z,7.40
2023-03-22T03:56:05.504Z,7.40
2023-03-22T03:58:38.074Z,7.50
2023-03-22T04:01:05.126Z,7.50
2023-03-22T04:03:38.283Z,7.60
2023-03-22T04:06:14.319Z,7.70
2023-03-22T04:08:46.090Z,7.80
2023-03-22T04:11:15.900Z,7.80
2023-03-22T04:13:44.641Z,7.90
2023-03-22T04:16:19.462Z,8.00
2023-03-22T04:18:46.513Z,8.10
2023-03-22T04:21:16.431Z,8.10
2023-03-22T04:23:56.333Z,8.20
2023-03-22T04:26:26.169Z,8.20
2023-03-22T04:29:19.778Z,8.40
2023-03-22T04:31:53.111Z,8.40
2023-03-22T04:34:36.184Z,8.50
2023-03-22T04:37:04.949Z,8.50
2023-03-22T04:39:34.178Z,8.50
2023-03-22T04:42:22.542Z,8.50
2023-03-22T04:44:56.665Z,8.50
2023-03-22T04:47:23.444Z,8.50
2023-03-22T04:49:50.206Z,8.50
2023-03-22T04:52:17.808Z,8.50
2023-03-22T04:54:51.695Z,8.60
2023-03-22T04:57:18.448Z,8.60
2023-03-22T04:59:48.025Z,8.70
2023-03-22T05:02:14.678Z,8.80
2023-03-22T05:04:43.346Z,8.80
2023-03-22T05:07:36.663Z,8.80
2023-03-22T05:10:06.193Z,8.70
2023-03-22T05:12:33.240Z,8.70
2023-03-22T05:15:16.266Z,8.80
2023-03-22T05:17:43.705Z,8.70
2023-03-22T05:20:11.628Z,8.70
2023-03-22T05:22:41.213Z,8.70
2023-03-22T05:25:11.437Z,8.70
2023-03-22T05:27:41.296Z,8.80
2023-03-22T05:30:30.122Z,8.80
2023-03-22T05:33:04.477Z,8.80
2023-03-22T05:35:39.267Z,8.70
2023-03-22T05:38:08.623Z,8.50
2023-03-22T05:40:38.111Z,8.50
2023-03-22T05:43:05.665Z,8.50
2023-03-22T05:45:32.728Z,8.40
2023-03-22T05:48:22.756Z,8.30
2023-03-22T05:50:49.738Z,8.30
2023-03-22T05:53:17.202Z,8.30
2023-03-22T05:56:10.000Z,8.20
2023-03-22T05:58:39.600Z,8.10
2023-03-22T06:01:09.002Z,8.00
2023-03-22T06:03:48.825Z,7.90
2023-03-22T06:06:30.768Z,7.90
2023-03-22T06:09:16.373Z,7.90
2023-03-22T06:11:44.700Z,7.90
2023-03-22T06:14:12.284Z,7.90
2023-03-22T06:16:52.989Z,7.90
2023-03-22T06:19:19.729Z,8.00
2023-03-22T06:21:46.654Z,8.10
2023-03-22T06:24:15.670Z,8.10
2023-03-22T06:26:42.629Z,8.30
2023-03-22T06:29:09.482Z,8.40
2023-03-22T06:31:36.439Z,8.50
2023-03-22T06:34:05.864Z,8.70
2023-03-22T06:36:37.794Z,8.90
2023-03-22T06:39:14.526Z,9.00
2023-03-22T06:41:44.199Z,9.20
2023-03-22T06:44:11.635Z,9.30
2023-03-22T06:47:04.814Z,9.30
2023-03-22T06:49:50.689Z,9.40
2023-03-22T06:52:27.786Z,9.50
2023-03-22T06:54:56.765Z,9.80
2023-03-22T06:57:24.244Z,10.00
2023-03-22T06:59:51.286Z,10.20
2023-03-22T07:02:18.326Z,10.30
2023-03-22T07:05:05.578Z,10.30
2023-03-22T07:07:32.493Z,10.30
2023-03-22T07:09:59.225Z,10.30
2023-03-22T07:12:26.019Z,10.30
2023-03-22T07:14:53.237Z,10.30
2023-03-22T07:17:41.503Z,10.50
2023-03-22T07:20:09.012Z,10.40
2023-03-22T07:22:35.841Z,10.50
2023-03-22T07:25:02.630Z,10.50
2023-03-22T07:27:32.886Z,10.60
2023-03-22T07:30:00.373Z,10.90
2023-03-22T07:32:28.603Z,11.10
2023-03-22T07:35:03.719Z,11.30
2023-03-22T07:37:30.720Z,11.30
2023-03-22T07:39:57.770Z,11.40
2023-03-22T07:42:27.077Z,11.40
2023-03-22T07:45:22.865Z,11.50
2023-03-22T07:48:11.740Z,11.90
2023-03-22T07:50:56.981Z,11.90
2023-03-22T07:53:25.609Z,12.00
2023-03-22T07:55:52.786Z,12.20
2023-03-22T07:58:19.521Z,12.30
2023-03-22T08:00:49.400Z,12.40
2023-03-22T08:03:47.658Z,12.60
2023-03-22T08:06:29.736Z,13.10
2023-03-22T08:08:57.130Z,13.10
2023-03-22T08:11:23.963Z,13.10
2023-03-22T08:13:50.979Z,12.90
2023-03-22T08:16:17.829Z,13.10
2023-03-22T08:18:45.471Z,13.20
2023-03-22T08:21:13.192Z,13.40
2023-03-22T08:23:42.433Z,13.30
2023-03-22T08:26:10.978Z,13.40
2023-03-22T08:28:37.869Z,13.50
2023-03-22T08:31:15.329Z,13.70
2023-03-22T08:33:44.485Z,13.90
2023-03-22T08:36:14.709Z,14.10
2023-03-22T08:38:47.125Z,14.40
2023-03-22T08:41:17.126Z,14.40
2023-03-22T08:43:43.858Z,14.50
2023-03-22T08:46:10.796Z,14.70
2023-03-22T08:48:38.421Z,14.60
2023-03-22T08:51:14.757Z,14.50
2023-03-22T08:54:02.228Z,14.90
2023-03-22T08:56:59.096Z,15.80
2023-03-22T08:59:41.268Z,16.10
2023-03-22T09:02:22.677Z,16.00
2023-03-22T09:04:51.325Z,16.10
2023-03-22T09:07:20.270Z,16.30
2023-03-22T09:09:55.694Z,16.20
2023-03-22T09:12:22.980Z,16.20
2023-03-22T09:14:50.120Z,16.10
2023-03-22T09:17:20.656Z,16.20
2023-03-22T09:19:48.284Z,16.20
2023-03-22T09:22:14.927Z,16.00
2023-03-22T09:24:46.904Z,15.90
2023-03-22T09:27:13.679Z,15.90
2023-03-22T09:29:41.077Z,15.70
2023-03-22T09:32:12.760Z,15.90
2023-03-22T09:34:40.645Z,16.00
2023-03-22T09:37:07.931Z,16.10
2023-03-22T09:39:44.637Z,16.00
2023-03-22T09:42:40.614Z,16.00
2023-03-22T09:45:38.335Z,15.90
2023-03-22T09:48:12.217Z,15.60
2023-03-22T09:50:46.429Z,15.60
2023-03-22T09:53:15.576Z,15.90
2023-03-22T09:55:58.018Z,16.00
2023-03-22T09:58:46.461Z,16.10
2023-03-22T10:01:51.070Z,15.80
2023-03-22T10:04:40.171Z,15.70
2023-03-22T10:07:24.138Z,15.40
2023-03-22T10:10:09.809Z,15.30
2023-03-22T10:12:58.653Z,15.70
2023-03-22T10:15:31.435Z,15.90
2023-03-22T10:18:00.250Z,16.20
2023-03-22T10:20:52.361Z,16.60
2023-03-22T10:23:29.466Z,17.10
2023-03-22T10:25:58.801Z,16.90
2023-03-22T10:28:41.328Z,17.30
2023-03-22T10:31:15.638Z,18.30
2023-03-22T10:33:51.887Z,19.30
2023-03-22T10:36:22.837Z,19.90
2023-03-22T10:38:54.073Z,20.00
2023-03-22T10:41:24.208Z,20.30
2023-03-22T10:43:55.714Z,21.10
2023-03-22T10:46:26.209Z,21.80
2023-03-22T10:48:57.930Z,21.80
2023-03-22T10:51:42.951Z,22.30
2023-03-22T10:54:14.768Z,22.50
2023-03-22T10:56:41.818Z,21.80
2023-03-22T10:59:11.980Z,22.90
2023-03-22T11:01:44.866Z,22.70
2023-03-22T11:04:15.011Z,22.70
2023-03-22T11:06:52.760Z,22.40
2023-03-22T11:09:23.650Z,22.00
2023-03-22T11:11:53.384Z,21.70
2023-03-22T11:14:27.831Z,20.80
2023-03-22T11:17:06.776Z,20.60
2023-03-22T11:19:52.624Z,20.50
2023-03-22T11:22:33.795Z,21.20
2023-03-22T11:25:01.426Z,21.10
2023-03-22T11:27:30.812Z,21.30
2023-03-22T11:30:19.993Z,22.60
2023-03-22T11:32:47.056Z,22.90
2023-03-22T11:35:22.729Z,23.80
2023-03-22T11:37:55.212Z,23.10
2023-03-22T11:40:27.796Z,23.40
2023-03-22T11:43:16.141Z,22.60
2023-03-22T11:45:44.577Z,21.20
2023-03-22T11:48:40.801Z,21.00
2023-03-22T11:51:11.560Z,21.40
2023-03-22T11:53:41.982Z,22.00
2023-03-22T11:56:16.941Z,22.70
2023-03-22T11:58:45.850Z,22.90
2023-03-22T12:01:24.015Z,23.40
2023-03-22T12:03:55.805Z,23.50
2023-03-22T12:06:31.871Z,24.50
2023-03-22T12:09:29.786Z,24.70
2023-03-22T12:11:57.318Z,24.90
2023-03-22T12:14:34.562Z,24.70
2023-03-22T12:17:16.866Z,24.90
2023-03-22T12:19:54.974Z,25.60
2023-03-22T12:22:29.147Z,25.50
2023-03-22T12:24:55.922Z,23.60
2023-03-22T12:27:31.590Z,23.70
2023-03-22T12:30:00.490Z,24.00
2023-03-22T12:32:35.329Z,24.10
2023-03-22T12:35:16.644Z,23.90
2023-03-22T12:37:48.773Z,24.30
2023-03-22T12:40:24.101Z,23.20
2023-03-22T12:43:30.219Z,24.00
2023-03-22T12:46:00.275Z,24.10
2023-03-22T12:48:30.315Z,23.80
2023-03-22T12:51:01.981Z,23.60
2023-03-22T12:53:44.646Z,24.40
2023-03-22T12:56:27.575Z,25.00
2023-03-22T12:59:02.371Z,25.60
2023-03-22T13:01:44.369Z,25.80
2023-03-22T13:04:35.916Z,25.80
2023-03-22T13:07:14.643Z,26.00
2023-03-22T13:09:48.838Z,26.60
2023-03-22T13:12:18.364Z,26.40
2023-03-22T13:14:51.343Z,25.40
2023-03-22T13:17:24.576Z,25.70
2023-03-22T13:20:11.456Z,25.50
2023-03-22T13:22:38.235Z,26.20
2023-03-22T13:25:12.452Z,26.90
2023-03-22T13:27:45.027Z,27.80
2023-03-22T13:30:21.666Z,28.70
2023-03-22T13:33:03.675Z,29.00
2023-03-22T13:35:48.527Z,28.90
2023-03-22T13:38:42.207Z,27.20
2023-03-22T13:41:21.716Z,27.10
2023-03-22T13:43:51.362Z,26.30
2023-03-22T13:46:20.714Z,24.90
2023-03-22T13:48:48.082Z,23.70
2023-03-22T13:51:25.629Z,23.40
2023-03-22T13:54:11.475Z,22.70
2023-03-22T13:56:43.741Z,22.40
2023-03-22T13:59:13.307Z,21.70
2023-03-22T14:01:49.990Z,21.50
2023-03-22T14:04:23.448Z,21.20
2023-03-22T14:06:52.349Z,21.00
2023-03-22T14:09:34.429Z,20.80
2023-03-22T14:12:20.639Z,20.40
2023-03-22T14:14:55.043Z,20.20
2023-03-22T14:17:42.035Z,19.90
2023-03-22T14:20:15.335Z,20.00
